Time;durP1;ratioP1;P1;durP2;ratioP2;P2;SDS_P1;SDS_P2;PMS_P1;PMS_P2;Temp;Humidity;BMP_temperature;BMP_pressure;BME280_temperature;BME280_humidity;BME280_pressure;Samples;Min_cycle;Max_cycle;Signal;HPM_P1;HPM_P2
2020/12/10 00:02:09;;;;;;;14.20;10.40;;;2.40;99.90;;;;;;5015167;28;20781;-64
2020/12/10 00:04:35;;;;;;;13.80;10.50;;;2.40;99.90;;;;;;5015187;28;20192;-64
2020/12/10 00:07:01;;;;;;;13.63;10.20;;;2.40;99.90;;;;;;5015029;28;20592;-65
2020/12/10 00:09:26;;;;;;;15.03;10.70;;;2.40;99.90;;;;;;5015114;28;20200;-65
2020/12/10 00:11:52;;;;;;;16.00;11.67;;;2.40;99.90;;;;;;5016304;28;20250;-64
2020/12/10 00:14:17;;;;;;;16.10;10.53;;;2.40;99.90;;;;;;5014635;28;20215;-64
2020/12/10 00:16:48;;;;;;;14.80;11.37;;;2.40;99.90;;;;;;5015101;28;20180;-65
2020/12/10 00:19:15;;;;;;;14.80;10.53;;;2.50;99.90;;;;;;5014968;28;20176;-66
2020/12/10 00:21:40;;;;;;;13.63;9.93;;;2.50;99.90;;;;;;5015027;28;20431;-65
2020/12/10 00:24:06;;;;;;;17.93;10.83;;;2.40;99.90;;;;;;5014661;28;20427;-65
2020/12/10 00:26:32;;;;;;;15.67;11.00;;;2.40;99.90;;;;;;5014758;28;20260;-64
2020/12/10 00:28:57;;;;;;;17.03;12.00;;;2.40;99.90;;;;;;5014855;28;20519;-65
2020/12/10 00:31:23;;;;;;;15.67;10.40;;;2.40;99.90;;;;;;5014463;28;20177;-64
2020/12/10 00:33:48;;;;;;;14.73;10.13;;;2.40;99.90;;;;;;5014615;28;20226;-64
2020/12/10 00:36:14;;;;;;;15.53;10.70;;;2.50;99.90;;;;;;5014455;28;20235;-65
2020/12/10 00:38:40;;;;;;;16.27;10.20;;;2.40;99.90;;;;;;5014375;28;20227;-66
2020/12/10 00:41:05;;;;;;;14.60;10.33;;;2.40;99.90;;;;;;5014672;28;20185;-66
2020/12/10 00:43:31;;;;;;;16.27;10.10;;;2.40;99.90;;;;;;5014715;28;20180;-65
2020/12/10 00:46:05;;;;;;;18.07;10.97;;;2.40;99.90;;;;;;5014232;28;20184;-66
2020/12/10 00:48:32;;;;;;;14.30;10.63;;;2.40;99.90;;;;;;5014501;28;20180;-65
2020/12/10 00:50:58;;;;;;;16.60;10.30;;;2.40;99.90;;;;;;5014187;28;20450;-65
2020/12/10 00:53:24;;;;;;;15.90;11.20;;;2.40;99.90;;;;;;5014180;28;20493;-65
2020/12/10 00:55:53;;;;;;;15.00;10.80;;;2.30;99.90;;;;;;4996287;28;20827;-66
2020/12/10 00:58:19;;;;;;;14.33;10.97;;;2.30;99.90;;;;;;5014344;28;20243;-65
2020/12/10 01:00:44;;;;;;;13.67;10.67;;;2.30;99.90;;;;;;5014200;28;20909;-66
2020/12/10 01:03:10;;;;;;;15.60;10.17;;;2.30;99.90;;;;;;5013914;28;20206;-66
2020/12/10 01:05:35;;;;;;;15.77;10.23;;;2.40;99.90;;;;;;5013952;28;20567;-65
2020/12/10 01:08:01;;;;;;;15.20;10.67;;;2.30;99.90;;;;;;5014095;28;20180;-65
2020/12/10 01:10:26;;;;;;;14.90;9.87;;;2.30;99.90;;;;;;5013862;28;20184;-65
2020/12/10 01:12:52;;;;;;;15.37;10.50;;;2.30;99.90;;;;;;5015539;28;20340;-65
2020/12/10 01:15:18;;;;;;;15.37;11.73;;;2.30;99.90;;;;;;5013575;28;20627;-64
2020/12/10 01:17:43;;;;;;;14.47;10.73;;;2.30;99.90;;;;;;5013990;28;20267;-65
2020/12/10 01:20:10;;;;;;;15.77;10.87;;;2.30;99.90;;;;;;5029364;28;20175;-65
2020/12/10 01:22:36;;;;;;;16.87;12.03;;;2.40;99.90;;;;;;5033402;28;20513;-65
2020/12/10 01:25:04;;;;;;;16.43;11.23;;;2.40;99.90;;;;;;5033458;28;20729;-65
2020/12/10 01:27:29;;;;;;;15.07;10.13;;;2.40;99.90;;;;;;5029351;28;20461;-64
2020/12/10 01:29:55;;;;;;;13.77;9.53;;;2.20;99.90;;;;;;5024953;28;20430;-65
2020/12/10 01:32:24;;;;;;;13.53;10.17;;;2.20;99.90;;;;;;5033419;28;20255;-65
2020/12/10 01:34:50;;;;;;;14.03;9.10;;;2.20;99.90;;;;;;5019361;28;20192;-65
2020/12/10 01:37:16;;;;;;;12.27;8.67;;;2.20;99.90;;;;;;5028278;28;20420;-65
2020/12/10 01:39:41;;;;;;;12.70;9.37;;;2.10;99.90;;;;;;5018647;28;20469;-65
2020/12/10 01:42:07;;;;;;;13.23;9.33;;;2.20;99.90;;;;;;5013467;28;20263;-64
2020/12/10 01:44:33;;;;;;;14.07;10.30;;;2.20;99.90;;;;;;5027090;28;21571;-65
2020/12/10 01:46:58;;;;;;;12.50;8.73;;;2.20;99.90;;;;;;5016345;28;20176;-63
2020/12/10 01:49:24;;;;;;;14.60;9.33;;;2.20;99.90;;;;;;5033111;28;20210;-63
2020/12/10 01:51:50;;;;;;;14.73;9.83;;;2.20;99.90;;;;;;5032726;28;20187;-65
2020/12/10 01:54:16;;;;;;;13.03;9.40;;;2.30;99.90;;;;;;5028214;28;20239;-65
2020/12/10 01:56:41;;;;;;;17.00;9.60;;;2.20;99.90;;;;;;5024119;28;20943;-66
2020/12/10 01:59:07;;;;;;;13.40;9.30;;;2.20;99.90;;;;;;5014101;28;20626;-65
2020/12/10 02:01:33;;;;;;;16.37;8.80;;;2.30;99.90;;;;;;5013161;28;20171;-65
2020/12/10 02:03:59;;;;;;;15.17;10.07;;;2.30;99.90;;;;;;5019680;28;20637;-65
2020/12/10 02:06:25;;;;;;;13.27;10.03;;;2.30;99.90;;;;;;5015467;28;20423;-65
2020/12/10 02:08:51;;;;;;;15.13;10.07;;;2.30;99.90;;;;;;5013045;28;20267;-64
2020/12/10 02:11:16;;;;;;;15.93;10.53;;;2.20;99.90;;;;;;5021528;28;20498;-65
2020/12/10 02:13:42;;;;;;;17.37;10.57;;;2.30;99.90;;;;;;5034193;28;20298;-66
2020/12/10 02:16:08;;;;;;;15.20;10.80;;;2.20;99.90;;;;;;5032209;28;20203;-65
2020/12/10 02:18:37;;;;;;;18.57;11.20;;;2.30;99.90;;;;;;5032165;28;20537;-65
2020/12/10 02:21:04;;;;;;;16.03;10.93;;;2.20;99.90;;;;;;5032152;28;20414;-65
2020/12/10 02:23:29;;;;;;;19.23;12.40;;;2.20;99.90;;;;;;5022710;28;20416;-66
2020/12/10 02:25:55;;;;;;;18.60;11.20;;;2.10;99.90;;;;;;5024976;28;20823;-64
2020/12/10 02:28:21;;;;;;;19.83;12.60;;;2.10;99.90;;;;;;5022856;28;20172;-65
2020/12/10 02:30:47;;;;;;;20.20;12.27;;;2.10;99.90;;;;;;5032291;28;20190;-66
2020/12/10 02:33:14;;;;;;;15.23;10.23;;;2.10;99.90;;;;;;5020595;28;20287;-64
2020/12/10 02:35:42;;;;;;;19.47;12.47;;;2.20;99.90;;;;;;5012453;28;20461;-66
2020/12/10 02:38:09;;;;;;;17.00;11.77;;;2.10;99.90;;;;;;5012720;28;20412;-65
2020/12/10 02:40:38;;;;;;;19.57;12.00;;;2.20;99.90;;;;;;5012256;28;20430;-64
2020/12/10 02:43:04;;;;;;;17.83;12.00;;;2.10;99.90;;;;;;5012375;28;20477;-65
2020/12/10 02:45:30;;;;;;;22.27;12.93;;;2.10;99.90;;;;;;5030067;28;20427;-65
2020/12/10 02:47:57;;;;;;;23.23;13.50;;;2.10;99.90;;;;;;5023708;28;20533;-65
2020/12/10 02:50:23;;;;;;;21.97;13.33;;;2.00;99.90;;;;;;5031979;28;20436;-65
2020/12/10 02:52:49;;;;;;;20.40;13.37;;;2.10;99.90;;;;;;5031783;28;20987;-64
2020/12/10 02:55:14;;;;;;;21.13;13.07;;;2.10;99.90;;;;;;5031783;28;20172;-65
2020/12/10 02:57:40;;;;;;;20.60;13.53;;;2.10;99.90;;;;;;5016225;28;20198;-64
2020/12/10 03:00:09;;;;;;;20.87;13.33;;;2.10;99.90;;;;;;5029972;28;20192;-65
2020/12/10 03:02:36;;;;;;;20.37;13.43;;;2.10;99.90;;;;;;5016222;28;20190;-64
2020/12/10 03:05:02;;;;;;;20.83;13.80;;;2.00;99.90;;;;;;5014106;28;20921;-65
2020/12/10 03:07:28;;;;;;;20.23;14.10;;;2.10;99.90;;;;;;5018988;28;20422;-65
2020/12/10 03:09:54;;;;;;;18.70;13.07;;;2.10;99.90;;;;;;5017121;28;20416;-64
2020/12/10 03:12:19;;;;;;;20.03;13.30;;;2.20;99.90;;;;;;5013266;28;20191;-65
2020/12/10 03:14:45;;;;;;;22.30;13.80;;;2.20;99.90;;;;;;5011743;28;20216;-65
2020/12/10 03:17:10;;;;;;;21.50;13.77;;;2.30;99.90;;;;;;5011823;28;20594;-64
2020/12/10 03:19:36;;;;;;;21.77;14.10;;;2.30;99.90;;;;;;5011886;28;20259;-65
2020/12/10 03:22:02;;;;;;;20.37;13.83;;;2.30;99.90;;;;;;5011523;28;20509;-65
2020/12/10 03:24:28;;;;;;;20.57;14.23;;;2.40;99.90;;;;;;5011557;28;20586;-65
2020/12/10 03:26:53;;;;;;;21.27;14.10;;;2.40;99.90;;;;;;5011798;28;20423;-65
2020/12/10 03:29:19;;;;;;;22.70;13.87;;;2.50;99.90;;;;;;5011574;28;20180;-65
2020/12/10 03:31:44;;;;;;;23.73;14.07;;;2.50;99.90;;;;;;5011576;28;20188;-66
2020/12/10 03:34:10;;;;;;;23.70;15.20;;;2.40;99.90;;;;;;5011500;28;20621;-64
2020/12/10 03:36:46;;;;;;;22.93;14.87;;;2.40;99.90;;;;;;5015631;28;20180;-66
2020/12/10 03:39:12;;;;;;;21.57;14.37;;;2.40;99.90;;;;;;5015433;28;20180;-64
2020/12/10 03:41:38;;;;;;;23.27;15.10;;;2.40;99.90;;;;;;5015544;28;20906;-65
2020/12/10 03:44:03;;;;;;;23.17;14.83;;;2.40;99.90;;;;;;5015320;28;20188;-64
2020/12/10 03:46:29;;;;;;;22.43;14.63;;;2.40;99.90;;;;;;5015782;28;20194;-65
2020/12/10 03:48:55;;;;;;;24.07;14.80;;;2.50;99.90;;;;;;5015765;28;20180;-65
2020/12/10 03:51:21;;;;;;;22.33;14.83;;;2.40;99.90;;;;;;5015303;28;20184;-65
2020/12/10 03:53:46;;;;;;;20.70;13.57;;;2.40;99.90;;;;;;5015316;28;20212;-65
2020/12/10 03:56:12;;;;;;;21.90;14.27;;;2.40;99.90;;;;;;5015579;28;20211;-65
2020/12/10 03:58:37;;;;;;;21.50;14.43;;;2.40;99.90;;;;;;5015222;28;20183;-65
2020/12/10 04:01:03;;;;;;;22.27;14.17;;;2.50;99.90;;;;;;5015363;28;20645;-65
2020/12/10 04:03:28;;;;;;;21.33;14.30;;;2.40;99.90;;;;;;5015019;28;20534;-64
2020/12/10 04:05:54;;;;;;;22.03;14.83;;;2.40;99.90;;;;;;5015303;28;20176;-65
2020/12/10 04:08:19;;;;;;;20.50;14.10;;;2.40;99.90;;;;;;5015232;28;20181;-65
2020/12/10 04:10:45;;;;;;;26.17;14.73;;;2.40;99.90;;;;;;5014965;28;20549;-65
2020/12/10 04:13:10;;;;;;;24.47;15.80;;;2.40;99.90;;;;;;5016838;28;20283;-66
2020/12/10 04:15:36;;;;;;;24.57;15.43;;;2.40;99.90;;;;;;5032788;28;20263;-64
2020/12/10 04:18:02;;;;;;;30.50;17.90;;;2.40;99.90;;;;;;5029990;28;20187;-65
2020/12/10 04:20:27;;;;;;;27.50;16.37;;;2.50;99.90;;;;;;5023015;28;20211;-66
2020/12/10 04:22:53;;;;;;;25.90;15.03;;;2.60;99.90;;;;;;5020302;28;20536;-64
2020/12/10 04:25:18;;;;;;;22.73;15.63;;;2.70;99.90;;;;;;5014831;28;20207;-65
2020/12/10 04:27:44;;;;;;;25.17;15.53;;;2.60;99.90;;;;;;5028150;28;20266;-65
2020/12/10 04:30:09;;;;;;;22.50;15.97;;;2.50;99.90;;;;;;5034508;28;20183;-64
2020/12/10 04:32:36;;;;;;;24.83;15.50;;;2.40;99.90;;;;;;5022133;28;20231;-64
2020/12/10 04:35:01;;;;;;;23.67;15.63;;;2.40;99.90;;;;;;5034295;28;20262;-64
2020/12/10 04:37:27;;;;;;;24.30;15.37;;;2.40;99.90;;;;;;5013595;28;20673;-64
2020/12/10 04:39:52;;;;;;;24.57;14.93;;;2.40;99.90;;;;;;5027348;28;20183;-64
2020/12/10 04:42:19;;;;;;;24.23;16.03;;;2.40;99.90;;;;;;5032668;28;20254;-64
2020/12/10 04:44:46;;;;;;;24.17;15.87;;;2.50;99.90;;;;;;5014774;28;20631;-65
2020/12/10 04:47:13;;;;;;;24.63;15.30;;;2.50;99.90;;;;;;5014023;28;20506;-65
2020/12/10 04:49:39;;;;;;;25.60;16.23;;;2.50;99.90;;;;;;5023035;28;20419;-65
2020/12/10 04:52:07;;;;;;;23.67;15.37;;;2.50;99.90;;;;;;5033631;28;20919;-65
2020/12/10 04:54:34;;;;;;;23.10;15.80;;;2.50;99.90;;;;;;5028785;28;20513;-65
2020/12/10 04:57:02;;;;;;;22.87;15.97;;;2.50;99.90;;;;;;5014346;28;20415;-64
2020/12/10 04:59:28;;;;;;;22.63;15.03;;;2.50;99.90;;;;;;5014485;28;20419;-64
2020/12/10 05:01:56;;;;;;;22.40;14.87;;;2.50;99.90;;;;;;5017028;28;20423;-65
2020/12/10 05:04:22;;;;;;;24.67;15.70;;;2.60;99.90;;;;;;5025058;28;20191;-65
2020/12/10 05:06:50;;;;;;;21.53;15.70;;;2.60;99.90;;;;;;5013967;28;20414;-65
2020/12/10 05:09:22;;;;;;;23.00;14.57;;;2.60;99.90;;;;;;5014059;28;20430;-65
2020/12/10 05:11:48;;;;;;;25.50;15.93;;;2.60;99.90;;;;;;5022044;28;20489;-65
2020/12/10 05:14:14;;;;;;;24.83;15.97;;;2.60;99.90;;;;;;5024285;28;20468;-64
2020/12/10 05:16:40;;;;;;;26.30;15.80;;;2.70;99.90;;;;;;5033611;28;20422;-64
2020/12/10 05:19:21;;;;;;;23.13;15.97;;;2.70;99.90;;;;;;5015298;28;20169;-65
2020/12/10 05:22:03;;;;;;;23.13;16.43;;;2.60;99.90;;;;;;5013391;28;20271;-65
2020/12/10 05:24:30;;;;;;;24.43;15.00;;;2.60;99.90;;;;;;5014143;28;20424;-64
2020/12/10 05:27:18;;;;;;;24.13;15.70;;;2.60;99.90;;;;;;5013677;28;20942;-65
2020/12/10 05:29:45;;;;;;;20.70;14.10;;;2.70;99.90;;;;;;5013412;28;20420;-65
2020/12/10 05:32:29;;;;;;;21.00;13.83;;;2.60;99.90;;;;;;5013717;28;20419;-66
2020/12/10 05:34:54;;;;;;;19.83;13.80;;;2.60;99.90;;;;;;5028389;28;20449;-64
2020/12/10 05:37:28;;;;;;;21.83;14.33;;;2.70;99.90;;;;;;5032943;28;20468;-65
2020/12/10 05:40:01;;;;;;;20.87;12.70;;;2.60;99.90;;;;;;5032796;28;20176;-64
2020/12/10 05:42:37;;;;;;;19.90;13.30;;;2.60;99.90;;;;;;5032983;28;20419;-65
2020/12/10 05:45:16;;;;;;;19.77;12.80;;;2.70;99.90;;;;;;5012701;28;20446;-66
2020/12/10 05:47:53;;;;;;;27.07;15.57;;;2.70;99.90;;;;;;5015827;28;20422;-65
2020/12/10 05:50:24;;;;;;;26.90;15.13;;;2.70;99.90;;;;;;5021782;28;20450;-63
2020/12/10 05:53:09;;;;;;;25.40;14.93;;;2.70;99.90;;;;;;5021901;28;20437;-65
2020/12/10 05:55:37;;;;;;;22.53;14.73;;;2.70;99.90;;;;;;5032811;28;20418;-65
2020/12/10 05:58:05;;;;;;;24.90;15.40;;;2.60;99.90;;;;;;5032044;28;20931;-65
2020/12/10 06:00:31;;;;;;;27.10;16.20;;;2.60;99.90;;;;;;5032939;28;20429;-65
2020/12/10 06:02:58;;;;;;;24.30;16.33;;;2.60;99.90;;;;;;5032879;28;20419;-67
2020/12/10 06:05:27;;;;;;;27.33;17.43;;;2.70;99.90;;;;;;5014208;28;20425;-65
2020/12/10 06:08:06;;;;;;;23.30;15.87;;;2.70;99.90;;;;;;5013021;28;20935;-65
2020/12/10 06:10:42;;;;;;;27.53;16.80;;;2.70;99.90;;;;;;5013065;28;20471;-65
2020/12/10 06:13:09;;;;;;;23.40;15.43;;;2.70;99.90;;;;;;5014292;28;20462;-65
2020/12/10 06:15:37;;;;;;;24.57;16.00;;;2.80;99.90;;;;;;5026421;28;20909;-64
2020/12/10 06:18:08;;;;;;;32.27;19.77;;;2.80;99.90;;;;;;5021196;28;20443;-66
2020/12/10 06:20:44;;;;;;;26.13;16.70;;;2.80;99.90;;;;;;5012435;28;20494;-65
2020/12/10 06:23:33;;;;;;;29.23;17.77;;;2.80;99.90;;;;;;5023669;28;20522;-65
2020/12/10 06:26:18;;;;;;;28.37;18.00;;;2.70;99.90;;;;;;5010939;28;20412;-65
2020/12/10 06:28:44;;;;;;;27.00;17.63;;;2.70;99.90;;;;;;5028484;28;20411;-65
2020/12/10 06:31:12;;;;;;;26.87;16.00;;;2.80;99.90;;;;;;5032121;28;20414;-64
2020/12/10 06:33:43;;;;;;;25.67;16.27;;;2.80;99.90;;;;;;5031903;28;20673;-65
2020/12/10 06:36:17;;;;;;;25.93;16.20;;;2.80;99.90;;;;;;5015510;28;20416;-67
2020/12/10 06:38:43;;;;;;;25.53;17.17;;;2.70;99.90;;;;;;5012254;28;20772;-66
2020/12/10 06:41:09;;;;;;;27.10;17.07;;;2.70;99.90;;;;;;5017840;28;20465;-64
2020/12/10 06:43:36;;;;;;;28.60;16.93;;;2.70;99.90;;;;;;5012648;28;20415;-68
2020/12/10 06:46:01;;;;;;;30.17;16.67;;;2.80;99.90;;;;;;5015024;28;20168;-65
2020/12/10 06:48:43;;;;;;;31.07;17.37;;;2.80;99.90;;;;;;5026317;28;20433;-65
2020/12/10 06:51:13;;;;;;;27.33;17.50;;;2.80;99.90;;;;;;5031830;28;20183;-66
2020/12/10 06:53:40;;;;;;;29.10;16.83;;;2.80;99.90;;;;;;5031781;28;20490;-65
2020/12/10 06:56:09;;;;;;;34.03;18.80;;;2.80;99.90;;;;;;5010031;28;20467;-66
2020/12/10 06:58:35;;;;;;;31.77;18.13;;;2.80;99.90;;;;;;5012269;28;20734;-68
2020/12/10 07:01:37;;;;;;;28.93;17.97;;;2.80;99.90;;;;;;5011790;28;20411;-64
2020/12/10 07:07:17;;;;;;;28.20;18.07;;;2.80;99.90;;;;;;5011469;28;20427;-64
2020/12/10 07:09:58;;;;;;;28.43;18.23;;;2.80;99.90;;;;;;5010981;28;20522;-67
2020/12/10 07:12:30;;;;;;;34.23;18.13;;;2.70;99.90;;;;;;5011384;28;20995;-66
2020/12/10 07:15:12;;;;;;;30.17;18.30;;;2.70;99.90;;;;;;5012261;28;20807;-66
2020/12/10 07:17:37;;;;;;;27.23;16.77;;;2.70;99.90;;;;;;5011230;28;20433;-64
2020/12/10 07:20:03;;;;;;;35.90;18.83;;;2.70;99.90;;;;;;5011225;28;20424;-64
2020/12/10 07:22:29;;;;;;;28.03;18.30;;;2.70;99.90;;;;;;5010886;28;20512;-65
2020/12/10 07:24:55;;;;;;;26.57;17.23;;;2.70;99.90;;;;;;5010636;28;20188;-66
2020/12/10 07:27:20;;;;;;;26.37;17.13;;;2.70;99.90;;;;;;5010710;28;20192;-65
2020/12/10 07:29:52;;;;;;;30.20;16.60;;;2.60;99.90;;;;;;5010881;28;20224;-65
2020/12/10 07:32:18;;;;;;;25.20;16.97;;;2.60;99.90;;;;;;5010494;28;20180;-64
2020/12/10 07:34:45;;;;;;;26.37;16.87;;;2.60;99.90;;;;;;5010788;28;20946;-67
2020/12/10 07:37:12;;;;;;;27.53;18.17;;;2.50;99.90;;;;;;5010658;28;20915;-67
2020/12/10 07:39:38;;;;;;;26.87;16.70;;;2.50;99.90;;;;;;5010871;28;20439;-65
2020/12/10 07:42:04;;;;;;;25.73;16.40;;;2.50;99.90;;;;;;5010651;28;20919;-66
2020/12/10 07:44:32;;;;;;;29.37;17.10;;;2.50;99.90;;;;;;5010640;28;20184;-65
2020/12/10 07:46:59;;;;;;;25.87;15.57;;;2.60;99.90;;;;;;5010385;28;20246;-64
2020/12/10 07:49:29;;;;;;;26.27;17.00;;;2.60;99.90;;;;;;5010568;28;20426;-63
2020/12/10 07:52:01;;;;;;;27.77;16.70;;;2.60;99.90;;;;;;5010679;28;20411;-64
2020/12/10 07:54:39;;;;;;;41.37;19.57;;;2.60;99.90;;;;;;5009221;28;20451;-64
2020/12/10 07:57:11;;;;;;;40.00;19.67;;;2.60;99.90;;;;;;5010630;28;20412;-65
2020/12/10 07:59:40;;;;;;;29.17;17.07;;;2.60;99.90;;;;;;5010780;28;20918;-66
2020/12/10 08:02:10;;;;;;;30.23;17.27;;;2.70;99.90;;;;;;5010859;28;20419;-64
2020/12/10 08:04:42;;;;;;;29.87;17.80;;;2.70;99.90;;;;;;5010612;28;20408;-65
2020/12/10 08:07:11;;;;;;;27.20;17.53;;;2.70;99.90;;;;;;5010651;28;20449;-64
2020/12/10 08:09:37;;;;;;;25.33;17.03;;;2.70;99.90;;;;;;5010339;28;20416;-65
2020/12/10 08:12:03;;;;;;;24.83;16.73;;;2.60;99.90;;;;;;5010235;28;20434;-65
2020/12/10 08:14:30;;;;;;;26.20;16.70;;;2.60;99.90;;;;;;5012153;28;20239;-65
2020/12/10 08:17:04;;;;;;;28.30;17.00;;;2.60;99.90;;;;;;5016470;28;20637;-66
2020/12/10 08:19:34;;;;;;;31.13;18.50;;;2.60;99.90;;;;;;5011527;28;20407;-64
2020/12/10 08:22:00;;;;;;;26.30;17.13;;;2.70;99.90;;;;;;5013053;28;20440;-65
2020/12/10 08:24:42;;;;;;;24.70;18.00;;;2.60;99.90;;;;;;5016531;28;20425;-65
2020/12/10 08:27:10;;;;;;;27.77;17.67;;;2.70;99.90;;;;;;5033779;28;20202;-64
2020/12/10 08:29:35;;;;;;;25.07;16.67;;;2.70;99.90;;;;;;5033503;28;20414;-63
2020/12/10 08:32:09;;;;;;;26.10;17.77;;;2.80;99.90;;;;;;5033575;28;20472;-64
2020/12/10 08:34:35;;;;;;;24.60;16.03;;;2.90;99.90;;;;;;5029370;28;20195;-65
2020/12/10 08:37:10;;;;;;;25.07;17.50;;;2.90;99.90;;;;;;5033363;28;20418;-66
2020/12/10 08:39:40;;;;;;;28.23;18.57;;;2.90;99.90;;;;;;5012805;28;20430;-64
2020/12/10 08:42:06;;;;;;;28.87;17.33;;;2.90;99.90;;;;;;5023664;28;20422;-65
2020/12/10 08:44:49;;;;;;;24.83;16.70;;;2.90;99.90;;;;;;5033185;28;20461;-64
2020/12/10 08:47:26;;;;;;;29.73;17.43;;;3.00;99.90;;;;;;5033503;28;20464;-67
2020/12/10 08:50:27;;;;;;;25.60;16.33;;;2.90;99.90;;;;;;5033394;28;20426;-65
2020/12/10 08:52:59;;;;;;;32.93;16.57;;;3.10;99.90;;;;;;5014741;28;20481;-64
2020/12/10 08:55:25;;;;;;;32.33;16.83;;;3.10;99.90;;;;;;5033054;28;20415;-65
2020/12/10 08:57:51;;;;;;;28.63;15.87;;;3.20;99.90;;;;;;5018389;28;20782;-63
2020/12/10 09:00:16;;;;;;;28.70;17.20;;;3.20;99.90;;;;;;5024374;28;20423;-63
2020/12/10 09:02:42;;;;;;;27.87;17.70;;;3.20;99.90;;;;;;5022116;28;20179;-64
2020/12/10 09:05:08;;;;;;;27.83;18.07;;;3.20;99.90;;;;;;5032884;28;20184;-64
2020/12/10 09:07:34;;;;;;;28.00;17.53;;;3.30;99.90;;;;;;5021812;28;20438;-65
2020/12/10 09:10:03;;;;;;;27.33;17.70;;;3.40;99.90;;;;;;5019834;28;20180;-64
2020/12/10 09:12:28;;;;;;;29.63;17.00;;;3.30;99.90;;;;;;5017105;28;20204;-65
2020/12/10 09:14:54;;;;;;;26.17;16.40;;;3.30;99.90;;;;;;5014173;28;20501;-64
2020/12/10 09:17:19;;;;;;;25.87;16.07;;;3.30;99.90;;;;;;5013127;28;20234;-64
2020/12/10 09:19:45;;;;;;;26.60;16.90;;;3.30;99.90;;;;;;5012801;28;20185;-64
2020/12/10 09:22:11;;;;;;;30.23;19.07;;;3.40;99.90;;;;;;5012988;28;20626;-64
2020/12/10 09:24:37;;;;;;;28.23;16.43;;;3.30;99.90;;;;;;5012988;28;20194;-65
2020/12/10 09:27:06;;;;;;;30.20;17.37;;;3.30;99.90;;;;;;5012709;28;20180;-64
2020/12/10 09:29:38;;;;;;;21.37;15.20;;;3.40;99.90;;;;;;5012675;28;20283;-63
2020/12/10 09:32:04;;;;;;;30.70;17.10;;;3.40;99.90;;;;;;5011797;28;20530;-65
2020/12/10 09:34:30;;;;;;;17.47;11.53;;;3.30;99.90;;;;;;5012317;28;20810;-65
2020/12/10 09:37:00;;;;;;;19.77;12.43;;;3.40;99.90;;;;;;5012598;28;20458;-64
2020/12/10 09:39:26;;;;;;;20.60;12.50;;;3.40;99.90;;;;;;5012712;28;20220;-65
2020/12/10 09:41:52;;;;;;;21.37;14.17;;;3.50;99.90;;;;;;5012400;28;20463;-64
2020/12/10 09:44:17;;;;;;;27.20;14.43;;;3.50;99.90;;;;;;5012780;28;20193;-64
2020/12/10 09:46:43;;;;;;;23.53;15.03;;;3.50;99.90;;;;;;5012630;28;20319;-65
2020/12/10 09:49:09;;;;;;;20.63;15.80;;;3.50;99.90;;;;;;5012279;28;20539;-66
2020/12/10 09:51:44;;;;;;;26.83;15.63;;;3.50;99.90;;;;;;5012399;28;20220;-64
2020/12/10 09:59:29;;;;;;;21.33;14.27;;;3.60;99.90;;;;;;5012085;28;20412;-64
2020/12/10 10:02:03;;;;;;;23.17;13.43;;;3.60;99.90;;;;;;5011983;28;20423;-65
2020/12/10 10:04:30;;;;;;;41.93;17.83;;;3.60;99.90;;;;;;5012211;28;20557;-65
2020/12/10 10:06:56;;;;;;;23.90;14.23;;;3.60;99.90;;;;;;5012550;28;20419;-65
2020/12/10 10:09:24;;;;;;;21.03;14.00;;;3.60;99.90;;;;;;5011803;28;20967;-64
2020/12/10 10:11:50;;;;;;;22.57;14.63;;;3.60;99.90;;;;;;5011984;28;20244;-65
2020/12/10 10:14:22;;;;;;;21.70;13.27;;;3.70;99.90;;;;;;4999608;28;20525;-64
2020/12/10 10:16:55;;;;;;;20.10;13.57;;;3.70;99.90;;;;;;5014864;28;20418;-65
2020/12/10 10:19:20;;;;;;;18.27;12.53;;;3.70;99.90;;;;;;5031588;28;20414;-65
2020/12/10 10:21:52;;;;;;;19.27;12.03;;;3.60;99.90;;;;;;5028797;28;20979;-65
2020/12/10 10:24:18;;;;;;;16.80;10.33;;;3.60;99.90;;;;;;5016017;28;20235;-64
2020/12/10 10:26:44;;;;;;;14.17;9.67;;;3.70;99.90;;;;;;5021403;28;20782;-64
2020/12/10 10:29:11;;;;;;;12.73;8.63;;;3.60;99.90;;;;;;5028116;28;20599;-64
2020/12/10 10:31:36;;;;;;;9.17;7.43;;;3.60;99.90;;;;;;5018607;28;20418;-63
2020/12/10 10:34:08;;;;;;;12.87;8.07;;;3.60;99.60;;;;;;5015310;28;20450;-63
2020/12/10 10:36:33;;;;;;;10.00;7.33;;;3.60;99.30;;;;;;5017807;28;20179;-65
2020/12/10 10:38:59;;;;;;;9.67;7.50;;;3.60;99.60;;;;;;5025350;28;20756;-66
2020/12/10 10:41:24;;;;;;;12.00;7.63;;;3.60;99.30;;;;;;5018588;28;20168;-64
2020/12/10 10:43:50;;;;;;;14.10;8.17;;;3.60;99.40;;;;;;5022123;28;20199;-64
2020/12/10 10:46:19;;;;;;;10.67;7.33;;;3.80;99.90;;;;;;5022539;28;20701;-65
2020/12/10 10:48:45;;;;;;;9.50;6.90;;;3.70;99.90;;;;;;5021654;28;20208;-63
2020/12/10 10:51:11;;;;;;;9.30;6.43;;;3.80;99.90;;;;;;5023328;28;20416;-65
2020/12/10 10:53:40;;;;;;;6.73;5.30;;;3.70;99.40;;;;;;5020265;28;20466;-64
2020/12/10 10:56:06;;;;;;;5.67;4.50;;;3.80;99.00;;;;;;5028522;28;20410;-64
2020/12/10 10:58:32;;;;;;;7.57;5.87;;;3.70;97.50;;;;;;5021716;28;20412;-64
2020/12/10 11:00:58;;;;;;;14.10;7.43;;;3.80;98.10;;;;;;5013412;28;20176;-65
2020/12/10 11:03:23;;;;;;;10.30;6.80;;;3.80;98.60;;;;;;5012137;28;20530;-65
2020/12/10 11:05:49;;;;;;;10.53;7.50;;;3.90;98.60;;;;;;5021721;28;20203;-64
2020/12/10 11:08:15;;;;;;;10.70;7.43;;;3.80;98.20;;;;;;5022303;28;20176;-64
2020/12/10 11:10:40;;;;;;;11.83;7.33;;;3.80;98.60;;;;;;5025164;28;20804;-65
2020/12/10 11:13:06;;;;;;;28.17;10.10;;;3.80;98.90;;;;;;5023472;28;20186;-64
2020/12/10 11:15:32;;;;;;;16.00;8.47;;;3.80;99.00;;;;;;4991426;28;20236;-64
2020/12/10 11:17:58;;;;;;;10.77;7.30;;;3.90;98.70;;;;;;4991634;28;20180;-64
2020/12/10 11:20:23;;;;;;;9.63;7.37;;;4.00;98.50;;;;;;4991595;28;20260;-65
2020/12/10 11:22:49;;;;;;;11.43;7.97;;;3.90;98.30;;;;;;4991681;28;20217;-64
2020/12/10 11:25:14;;;;;;;14.50;8.03;;;3.90;98.60;;;;;;4991708;28;20233;-64
2020/12/10 11:27:40;;;;;;;13.60;7.30;;;3.90;98.30;;;;;;4991594;28;20224;-64
2020/12/10 11:30:06;;;;;;;10.57;6.67;;;3.90;98.10;;;;;;4991529;28;20184;-65
2020/12/10 11:32:32;;;;;;;10.80;7.27;;;3.90;98.10;;;;;;4991561;28;20184;-64
2020/12/10 11:34:57;;;;;;;12.60;7.37;;;3.90;98.70;;;;;;4991466;28;20216;-65
2020/12/10 11:37:23;;;;;;;9.87;7.73;;;4.00;99.00;;;;;;4990351;28;20177;-63
2020/12/10 11:39:49;;;;;;;12.50;7.83;;;4.00;98.60;;;;;;4991539;28;20189;-64
2020/12/10 11:42:14;;;;;;;11.60;8.07;;;4.10;98.40;;;;;;4991421;28;20610;-65
2020/12/10 11:44:42;;;;;;;10.60;7.50;;;4.00;98.10;;;;;;4991493;28;20181;-65
2020/12/10 11:47:08;;;;;;;12.83;8.23;;;4.00;98.40;;;;;;4991276;28;20193;-65
2020/12/10 11:49:33;;;;;;;14.50;8.43;;;3.90;98.10;;;;;;4991533;28;20420;-64
2020/12/10 11:51:59;;;;;;;17.83;7.97;;;3.90;98.50;;;;;;4991793;28;20430;-65
2020/12/10 11:54:25;;;;;;;12.10;7.90;;;3.90;98.80;;;;;;4991658;28;20547;-64
2020/12/10 11:56:57;;;;;;;11.57;7.90;;;3.90;98.70;;;;;;4994052;28;20695;-64
2020/12/10 11:59:26;;;;;;;13.20;8.53;;;3.90;99.40;;;;;;4995263;28;20187;-63
2020/12/10 12:01:51;;;;;;;12.73;7.77;;;3.50;98.70;;;;;;4995558;28;20416;-64
2020/12/10 12:04:17;;;;;;;10.20;7.17;;;4.00;99.20;;;;;;4995115;28;20427;-65
2020/12/10 12:06:46;;;;;;;10.27;8.00;;;4.10;99.80;;;;;;4995253;28;20188;-64
2020/12/10 12:09:12;;;;;;;10.57;7.13;;;4.10;99.80;;;;;;4994900;28;20181;-65
2020/12/10 12:11:37;;;;;;;9.80;7.03;;;4.20;98.50;;;;;;4995102;28;20452;-65
2020/12/10 12:14:03;;;;;;;12.20;7.53;;;4.30;98.30;;;;;;5006956;28;20907;-65
2020/12/10 12:16:29;;;;;;;9.80;7.57;;;4.30;98.30;;;;;;5025573;28;20235;-66
2020/12/10 12:18:54;;;;;;;13.27;8.37;;;4.30;98.10;;;;;;5024117;28;20639;-65
2020/12/10 12:21:27;;;;;;;13.50;7.70;;;4.30;97.70;;;;;;5026784;28;20259;-65
2020/12/10 12:23:53;;;;;;;10.20;8.00;;;4.30;98.20;;;;;;5029938;28;20661;-65
2020/12/10 12:26:27;;;;;;;11.17;8.33;;;4.30;98.10;;;;;;5028488;28;20501;-65
2020/12/10 12:28:53;;;;;;;11.47;8.27;;;4.30;98.30;;;;;;5017904;28;20511;-66
2020/12/10 12:31:19;;;;;;;15.07;8.70;;;4.30;98.10;;;;;;5033604;28;20852;-64
2020/12/10 12:33:44;;;;;;;16.00;8.43;;;4.20;98.00;;;;;;5016494;28;20200;-65
2020/12/10 12:36:11;;;;;;;13.83;8.03;;;4.20;97.60;;;;;;5013987;28;20188;-64
2020/12/10 12:38:36;;;;;;;16.23;8.03;;;4.20;97.80;;;;;;5020886;28;20223;-65
2020/12/10 12:41:03;;;;;;;12.90;8.87;;;4.20;97.80;;;;;;5020944;28;20415;-64
2020/12/10 12:43:28;;;;;;;11.30;8.50;;;4.20;97.40;;;;;;5022486;28;20179;-65
2020/12/10 12:45:54;;;;;;;13.47;8.40;;;4.20;98.10;;;;;;5023967;28;20421;-65
2020/12/10 12:48:20;;;;;;;11.60;8.90;;;4.20;98.10;;;;;;5020942;28;20183;-63
2020/12/10 12:50:46;;;;;;;13.43;9.43;;;4.20;98.40;;;;;;5012449;28;20179;-64
2020/12/10 12:53:12;;;;;;;10.70;8.10;;;4.10;98.10;;;;;;5025964;28;20712;-65